Time;durP1;ratioP1;P1;durP2;ratioP2;P2;SDS_P1;SDS_P2;PMS_P1;PMS_P2;Temp;Humidity;BMP_temperature;BMP_pressure;BME280_temperature;BME280_humidity;BME280_pressure;Samples;Min_cycle;Max_cycle;Signal;HPM_P1;HPM_P2
2021/03/02 00:00:05;;;;;;;;;;;3.80;99.90;;;;;;4948760;28;19950;-91
2021/03/02 00:02:41;;;;;;;;;;;3.80;99.90;;;;;;4998405;28;19910;-90
2021/03/02 00:05:19;;;;;;;;;;;3.80;99.90;;;;;;4995146;28;19910;-90
2021/03/02 00:07:53;;;;;;;;;;;3.80;99.90;;;;;;5016050;28;20386;-90
2021/03/02 00:10:23;;;;;;;;;;;3.70;99.90;;;;;;4998423;28;19929;-90
2021/03/02 00:12:52;;;;;;;;;;;3.80;99.90;;;;;;4993675;28;19913;-90
2021/03/02 00:15:24;;;;;;;;;;;3.70;99.90;;;;;;4998896;28;20107;-90
2021/03/02 00:17:53;;;;;;;;;;;3.80;99.90;;;;;;4998736;28;19921;-90
2021/03/02 00:20:23;;;;;;;;;;;3.70;99.90;;;;;;5001783;28;19920;-90
2021/03/02 00:23:02;;;;;;;;;;;3.70;99.90;;;;;;5001711;28;19921;-90
2021/03/02 00:25:35;;;;;;;;;;;3.70;99.90;;;;;;5009395;28;20027;-90
2021/03/02 00:28:11;;;;;;;;;;;3.70;99.90;;;;;;5016763;28;19941;-91
2021/03/02 00:30:44;;;;;;;;;;;3.70;99.90;;;;;;5013966;28;19953;-90
2021/03/02 00:33:14;;;;;;;;;;;3.60;99.90;;;;;;5007509;28;19917;-89
2021/03/02 00:35:40;;;;;;;;;;;3.60;99.90;;;;;;5008124;28;19998;-89
2021/03/02 00:38:13;;;;;;;;;;;3.50;99.90;;;;;;5012271;28;19909;-90
2021/03/02 00:40:44;;;;;;;;;;;3.50;99.90;;;;;;4993132;28;19925;-91
2021/03/02 00:43:16;;;;;;;;;;;3.50;99.90;;;;;;5008510;28;19926;-90
2021/03/02 00:45:49;;;;;;;;;;;3.50;99.90;;;;;;5010728;28;19898;-90
2021/03/02 00:48:16;;;;;;;;;;;3.50;99.90;;;;;;5001598;28;19939;-89
2021/03/02 00:50:44;;;;;;;;;;;3.50;99.90;;;;;;4991738;28;20338;-89
2021/03/02 00:53:13;;;;;;;;;;;3.40;99.90;;;;;;4992597;28;20049;-90
2021/03/02 00:55:50;;;;;;;;;;;3.30;99.90;;;;;;4978278;28;19921;-91
2021/03/02 00:58:16;;;;;;;;;;;3.30;99.90;;;;;;4997633;28;19917;-90
2021/03/02 01:00:50;;;;;;;;;;;3.30;99.90;;;;;;4992359;28;19913;-89
2021/03/02 01:03:19;;;;;;;;;;;3.30;99.90;;;;;;5003172;28;19932;-90
2021/03/02 01:05:50;;;;;;;;;;;3.30;99.90;;;;;;5017275;28;19913;-90
2021/03/02 01:08:22;;;;;;;;;;;3.30;99.90;;;;;;5020270;28;19913;-90
2021/03/02 01:10:59;;;;;;;;;;;3.30;99.90;;;;;;5017384;28;19916;-90
2021/03/02 01:13:30;;;;;;;;;;;3.30;99.90;;;;;;5018417;28;19913;-90
2021/03/02 01:16:13;;;;;;;;;;;3.30;99.90;;;;;;5035800;28;19938;-91
2021/03/02 01:18:48;;;;;;;;;;;3.30;99.90;;;;;;5004253;28;19925;-91
2021/03/02 01:21:19;;;;;;;;;;;3.20;99.90;;;;;;5020668;28;19959;-91
2021/03/02 01:23:56;;;;;;;;;;;3.20;99.90;;;;;;5020212;28;19917;-91
2021/03/02 01:26:25;;;;;;;;;;;3.20;99.90;;;;;;5016964;28;19917;-91
2021/03/02 01:28:59;;;;;;;;;;;3.20;99.90;;;;;;5014992;28;19910;-91
2021/03/02 01:31:28;;;;;;;;;;;3.20;99.90;;;;;;4995756;28;20390;-90
2021/03/02 01:34:06;;;;;;;;;;;3.20;99.90;;;;;;5000090;28;19910;-91
2021/03/02 01:36:34;;;;;;;;;;;3.20;99.90;;;;;;4998450;28;19917;-90
2021/03/02 01:39:06;;;;;;;;;;;3.20;99.90;;;;;;4996765;28;19948;-90
2021/03/02 01:41:41;;;;;;;;;;;3.20;99.90;;;;;;4995918;28;20008;-90
2021/03/02 01:44:13;;;;;;;;;;;3.20;99.90;;;;;;4995233;28;20306;-89
2021/03/02 01:46:44;;;;;;;;;;;3.10;99.90;;;;;;4998603;28;19921;-90
2021/03/02 01:49:13;;;;;;;;;;;3.10;99.90;;;;;;4999784;28;19999;-90
2021/03/02 01:51:50;;;;;;;;;;;3.10;99.90;;;;;;4981082;28;19926;-90
2021/03/02 01:54:26;;;;;;;;;;;3.00;99.90;;;;;;4961093;28;19914;-90
2021/03/02 01:56:55;;;;;;;;;;;3.00;99.90;;;;;;4975612;28;19917;-91
2021/03/02 01:59:24;;;;;;;;;;;3.00;99.90;;;;;;4959353;28;19910;-90
2021/03/02 02:02:06;;;;;;;;;;;3.00;99.90;;;;;;4975342;28;19957;-90
2021/03/02 02:04:41;;;;;;;;;;;3.00;99.90;;;;;;4959409;28;19942;-90
2021/03/02 02:07:32;;;;;;;;;;;3.00;99.90;;;;;;4973548;28;19918;-91
2021/03/02 02:10:06;;;;;;;;;;;3.00;99.90;;;;;;4923554;28;19975;-90
2021/03/02 02:12:43;;;;;;;;;;;2.90;99.90;;;;;;4973767;28;19910;-90
2021/03/02 02:15:26;;;;;;;;;;;2.90;99.90;;;;;;4972350;28;19934;-90
2021/03/02 02:18:01;;;;;;;;;;;2.90;99.90;;;;;;4975372;28;19910;-90
2021/03/02 02:21:09;;;;;;;;;;;2.80;99.90;;;;;;4974270;28;19910;-90
2021/03/02 02:23:35;;;;;;;;;;;2.80;99.90;;;;;;4995283;28;19917;-91
2021/03/02 02:26:13;;;;;;;;;;;2.80;99.90;;;;;;4998677;28;19913;-90
2021/03/02 02:28:43;;;;;;;;;;;2.80;99.90;;;;;;4999246;28;19913;-90
2021/03/02 02:31:11;;;;;;;;;;;2.80;99.90;;;;;;4995004;28;19913;-90
2021/03/02 02:33:40;;;;;;;;;;;2.70;99.90;;;;;;4998866;28;20352;-89
2021/03/02 02:36:22;;;;;;;;;;;2.80;99.90;;;;;;4999051;28;19925;-89
2021/03/02 02:39:09;;;;;;;;;;;2.70;99.90;;;;;;5013585;28;19932;-90
2021/03/02 02:41:41;;;;;;;;;;;2.70;99.90;;;;;;4998438;28;19964;-90
2021/03/02 02:44:18;;;;;;;;;;;2.70;99.90;;;;;;4994545;28;19909;-91
2021/03/02 02:46:47;;;;;;;;;;;2.70;99.90;;;;;;4994502;28;20385;-89
2021/03/02 02:49:19;;;;;;;;;;;2.70;99.90;;;;;;4997757;28;20480;-86
2021/03/02 02:51:51;;;;;;;;;;;2.70;99.90;;;;;;4805508;28;5886110;-90
2021/03/02 02:54:16;;;;;;;;;;;2.70;99.90;;;;;;5018885;28;19913;-89
2021/03/02 02:57:10;;;;;;;;;;;2.70;99.90;;;;;;5035624;28;19917;-90
2021/03/02 02:59:49;;;;;;;;;;;2.70;99.90;;;;;;5035215;28;19972;-89
2021/03/02 03:02:26;;;;;;;;;;;2.70;99.90;;;;;;5015715;28;19957;-89
2021/03/02 03:05:08;;;;;;;;;;;2.60;99.90;;;;;;5036032;28;19914;-89
2021/03/02 03:07:51;;;;;;;;;;;2.70;99.90;;;;;;5018501;28;19917;-90
2021/03/02 03:10:17;;;;;;;;;;;2.60;99.90;;;;;;5018040;28;19920;-90
2021/03/02 03:12:51;;;;;;;;;;;2.60;99.90;;;;;;5018853;28;19916;-90
2021/03/02 03:15:24;;;;;;;;;;;2.60;99.90;;;;;;5032338;28;19909;-89
2021/03/02 03:17:57;;;;;;;;;;;2.60;99.90;;;;;;5018084;28;19908;-89
2021/03/02 03:20:45;;;;;;;;;;;2.50;99.90;;;;;;5034214;28;19910;-89
2021/03/02 03:23:16;;;;;;;;;;;2.50;99.90;;;;;;5018951;28;20019;-89
2021/03/02 03:25:53;;;;;;;;;;;2.50;99.90;;;;;;5032028;28;19913;-89
2021/03/02 03:28:29;;;;;;;;;;;2.50;99.90;;;;;;5031482;28;20020;-89
2021/03/02 03:31:01;;;;;;;;;;;2.40;99.90;;;;;;5017400;28;19909;-90
2021/03/02 03:33:32;;;;;;;;;;;2.30;99.90;;;;;;5018237;28;19910;-90
2021/03/02 03:36:11;;;;;;;;;;;2.30;99.90;;;;;;5017726;28;19962;-90
2021/03/02 03:38:39;;;;;;;;;;;2.30;99.90;;;;;;5017800;28;19937;-90
2021/03/02 03:44:10;;;;;;;;;;;2.30;99.90;;;;;;5034930;28;20318;-89
2021/03/02 03:46:55;;;;;;;;;;;2.30;99.90;;;;;;5032696;28;19964;-89
2021/03/02 03:49:21;;;;;;;;;;;2.30;99.90;;;;;;5017761;28;19924;-90
2021/03/02 03:51:48;;;;;;;;;;;2.30;99.90;;;;;;5015579;28;19921;-90
2021/03/02 03:54:21;;;;;;;;;;;2.30;99.90;;;;;;5023090;28;19913;-90
2021/03/02 03:56:51;;;;;;;;;;;2.30;99.90;;;;;;5039707;28;19916;-90
2021/03/02 03:59:26;;;;;;;;;;;2.30;99.90;;;;;;5022210;28;19909;-90
2021/03/02 04:01:56;;;;;;;;;;;2.30;99.90;;;;;;5017331;28;20008;-90
2021/03/02 04:04:28;;;;;;;;;;;2.20;99.90;;;;;;5032972;28;19916;-90
2021/03/02 04:07:01;;;;;;;;;;;2.20;99.90;;;;;;5021544;28;19917;-90
2021/03/02 04:09:39;;;;;;;;;;;2.20;99.90;;;;;;5030898;28;19917;-90
2021/03/02 04:12:16;;;;;;;;;;;2.10;99.90;;;;;;5021834;28;19916;-90
2021/03/02 04:14:47;;;;;;;;;;;2.20;99.90;;;;;;5021774;28;19932;-90
2021/03/02 04:17:16;;;;;;;;;;;2.10;99.90;;;;;;5021496;28;19909;-91
2021/03/02 04:19:51;;;;;;;;;;;2.10;99.90;;;;;;5039614;28;19913;-90
2021/03/02 04:22:19;;;;;;;;;;;2.10;99.90;;;;;;5017136;28;19913;-90
2021/03/02 04:24:52;;;;;;;;;;;2.10;99.90;;;;;;5016231;28;19916;-90
2021/03/02 04:27:25;;;;;;;;;;;2.00;99.90;;;;;;5015493;28;19980;-90
2021/03/02 04:29:56;;;;;;;;;;;2.00;99.90;;;;;;5018088;28;19909;-90
2021/03/02 04:32:28;;;;;;;;;;;2.00;99.90;;;;;;5034854;28;19909;-89
2021/03/02 04:34:57;;;;;;;;;;;2.00;99.90;;;;;;5017309;28;20014;-90
2021/03/02 04:37:27;;;;;;;;;;;2.00;99.90;;;;;;5021039;28;19913;-89
2021/03/02 04:39:58;;;;;;;;;;;2.00;99.90;;;;;;5020793;28;19920;-90
2021/03/02 04:42:25;;;;;;;;;;;2.00;99.90;;;;;;5038773;28;19932;-89
2021/03/02 04:45:02;;;;;;;;;;;2.00;99.90;;;;;;5020890;28;19909;-89
2021/03/02 04:47:28;;;;;;;;;;;1.90;99.90;;;;;;5020373;28;19917;-88
2021/03/02 04:49:59;;;;;;;;;;;2.00;99.90;;;;;;5010482;28;20052;-89
2021/03/02 04:52:30;;;;;;;;;;;2.00;99.90;;;;;;4993391;28;20005;-90
2021/03/02 04:55:04;;;;;;;;;;;2.00;99.90;;;;;;4938970;29;19919;-90
2021/03/02 04:57:39;;;;;;;;;;;2.00;99.90;;;;;;4920202;29;19911;-90
2021/03/02 05:00:23;;;;;;;;;;;2.00;99.90;;;;;;4938121;29;19911;-90
2021/03/02 05:02:54;;;;;;;;;;;2.00;99.90;;;;;;4933247;29;19974;-90
2021/03/02 05:05:23;;;;;;;;;;;2.00;99.90;;;;;;4922834;29;20320;-89
2021/03/02 05:07:53;;;;;;;;;;;1.90;99.90;;;;;;4917199;29;19915;-89
2021/03/02 05:10:24;;;;;;;;;;;2.00;99.90;;;;;;4919046;29;19919;-90
2021/03/02 05:12:50;;;;;;;;;;;2.00;99.90;;;;;;4918088;29;19935;-89
2021/03/02 05:15:30;;;;;;;;;;;1.90;99.90;;;;;;4918246;29;19936;-90
2021/03/02 05:18:01;;;;;;;;;;;2.00;99.90;;;;;;4921176;29;19958;-90
2021/03/02 05:20:35;;;;;;;;;;;1.90;99.90;;;;;;4939391;29;19911;-89
2021/03/02 05:23:03;;;;;;;;;;;2.00;99.90;;;;;;4936897;29;20352;-89
2021/03/02 05:25:30;;;;;;;;;;;2.00;99.90;;;;;;4892618;29;19930;-90
2021/03/02 05:28:02;;;;;;;;;;;1.90;99.90;;;;;;4903480;29;19911;-90
2021/03/02 05:30:36;;;;;;;;;;;1.90;99.90;;;;;;4903393;29;20392;-90
2021/03/02 05:33:04;;;;;;;;;;;1.90;99.90;;;;;;4934929;29;19915;-91
2021/03/02 05:35:37;;;;;;;;;;;1.80;99.90;;;;;;4938509;29;20436;-89
2021/03/02 05:38:08;;;;;;;;;;;1.80;99.90;;;;;;4934405;29;19917;-90
2021/03/02 05:40:41;;;;;;;;;;;1.80;99.90;;;;;;4935040;29;20002;-89
2021/03/02 05:43:31;;;;;;;;;;;1.80;99.90;;;;;;4938621;29;20005;-89
2021/03/02 05:46:06;;;;;;;;;;;1.80;99.90;;;;;;4934573;29;20390;-90
2021/03/02 05:48:37;;;;;;;;;;;1.90;99.90;;;;;;4937717;29;19921;-90
2021/03/02 05:51:05;;;;;;;;;;;1.90;99.90;;;;;;4943652;28;19922;-89
2021/03/02 05:53:44;;;;;;;;;;;1.90;99.90;;;;;;4956813;29;19971;-90
2021/03/02 05:56:26;;;;;;;;;;;1.80;99.90;;;;;;4957102;29;19918;-90
2021/03/02 05:58:57;;;;;;;;;;;1.80;99.90;;;;;;4957525;29;19911;-89
2021/03/02 06:01:23;;;;;;;;;;;1.80;99.90;;;;;;4957088;29;19937;-88
2021/03/02 06:03:49;;;;;;;;;;;1.80;99.90;;;;;;5007322;28;20370;-89
2021/03/02 06:06:21;;;;;;;;;;;1.80;99.90;;;;;;5023253;28;19929;-90
2021/03/02 06:08:52;;;;;;;;;;;1.80;99.90;;;;;;5038806;28;19916;-89
2021/03/02 06:11:21;;;;;;;;;;;1.80;99.90;;;;;;5038270;28;19909;-89
2021/03/02 06:13:49;;;;;;;;;;;1.80;99.90;;;;;;5035051;28;19912;-89
2021/03/02 06:16:17;;;;;;;;;;;1.90;99.90;;;;;;5034774;28;19951;-90
2021/03/02 06:18:52;;;;;;;;;;;1.80;99.90;;;;;;5038264;28;19928;-89
2021/03/02 06:21:24;;;;;;;;;;;1.80;99.90;;;;;;5038221;28;19916;-89
2021/03/02 06:23:56;;;;;;;;;;;1.80;99.90;;;;;;5038292;28;19936;-89
2021/03/02 06:26:39;;;;;;;;;;;1.80;99.90;;;;;;5035054;28;19994;-89
2021/03/02 06:29:17;;;;;;;;;;;1.90;99.90;;;;;;5036087;28;20174;-90
2021/03/02 06:31:45;;;;;;;;;;;2.00;99.90;;;;;;5022491;28;20358;-88
2021/03/02 06:34:16;;;;;;;;;;;2.00;99.90;;;;;;5020909;28;19909;-88
2021/03/02 06:37:04;;;;;;;;;;;2.00;99.90;;;;;;5016625;28;20012;-89
2021/03/02 06:39:34;;;;;;;;;;;2.00;99.90;;;;;;5019614;28;19983;-90
2021/03/02 06:42:15;;;;;;;;;;;2.00;99.90;;;;;;5037667;28;20000;-89
2021/03/02 06:45:02;;;;;;;;;;;2.10;99.90;;;;;;5018391;28;19910;-89
2021/03/02 06:47:31;;;;;;;;;;;2.10;99.90;;;;;;5019130;28;20358;-88
2021/03/02 06:50:04;;;;;;;;;;;2.10;99.90;;;;;;5019215;28;19909;-88
2021/03/02 06:52:37;;;;;;;;;;;2.20;99.90;;;;;;5013033;28;19926;-89
2021/03/02 06:55:03;;;;;;;;;;;2.20;99.90;;;;;;4999196;28;19909;-88
2021/03/02 06:57:31;;;;;;;;;;;2.30;99.90;;;;;;4999323;28;19972;-88
2021/03/02 07:00:12;;;;;;;;;;;2.30;99.90;;;;;;5016086;28;20434;-88
2021/03/02 07:02:42;;;;;;;;;;;2.30;99.90;;;;;;5017906;28;20020;-90
2021/03/02 07:05:23;;;;;;;;;;;2.40;99.90;;;;;;4961599;28;19916;-89
2021/03/02 07:07:57;;;;;;;;;;;2.40;99.90;;;;;;4979453;28;20465;-88
2021/03/02 07:10:33;;;;;;;;;;;2.50;99.90;;;;;;4989470;28;19910;-89
2021/03/02 07:13:04;;;;;;;;;;;2.60;99.90;;;;;;4983080;28;20410;-89
2021/03/02 07:15:41;;;;;;;;;;;2.60;99.90;;;;;;4984530;28;19917;-89
2021/03/02 07:18:15;;;;;;;;;;;2.70;99.90;;;;;;4981057;28;19910;-88
2021/03/02 07:21:00;;;;;;;;;;;2.80;99.90;;;;;;4984652;28;19910;-88
2021/03/02 07:23:33;;;;;;;;;;;2.90;99.90;;;;;;4983474;28;19965;-88
2021/03/02 07:26:29;;;;;;;;;;;3.10;99.90;;;;;;4979159;28;19918;-91
2021/03/02 07:28:57;;;;;;;;;;;3.20;99.90;;;;;;4973802;28;19910;-89
2021/03/02 07:31:24;;;;;;;;;;;3.30;99.90;;;;;;4953629;28;19946;-89
2021/03/02 07:33:55;;;;;;;;;;;3.30;99.90;;;;;;4936665;29;20425;-89
2021/03/02 07:36:21;;;;;;;;;;;3.30;99.90;;;;;;4936560;29;19933;-88
2021/03/02 07:39:19;;;;;;;;;;;3.40;99.90;;;;;;4937102;29;19911;-89
2021/03/02 07:41:48;;;;;;;;;;;3.40;99.90;;;;;;4909777;29;20357;-89
2021/03/02 07:44:25;;;;;;;;;;;3.50;99.90;;;;;;4936486;29;19963;-89
2021/03/02 07:46:56;;;;;;;;;;;3.60;99.90;;;;;;4955211;29;19974;-90
2021/03/02 07:49:25;;;;;;;;;;;3.70;99.90;;;;;;4939008;29;19917;-90
2021/03/02 07:52:07;;;;;;;;;;;4.30;99.90;;;;;;4954923;29;19922;-88
2021/03/02 07:54:37;;;;;;;;;;;5.90;99.90;;;;;;4955630;29;19932;-91
2021/03/02 07:57:15;;;;;;;;;;;7.70;99.90;;;;;;4937291;29;19910;-90
2021/03/02 08:00:21;;;;;;;;;;;9.00;99.90;;;;;;4955920;29;19917;-91
2021/03/02 08:03:05;;;;;;;;;;;10.30;99.90;;;;;;5000078;28;19920;-90
2021/03/02 08:05:41;;;;;;;;;;;11.60;99.90;;;;;;5035945;28;19917;-90
2021/03/02 08:08:25;;;;;;;;;;;12.50;99.90;;;;;;5020739;28;19916;-90
2021/03/02 08:11:01;;;;;;;;;;;13.30;96.90;;;;;;5017614;28;19910;-92
2021/03/02 08:13:43;;;;;;;;;;;13.90;94.00;;;;;;5036179;28;19948;-90
2021/03/02 08:16:12;;;;;;;;;;;14.40;87.20;;;;;;5045741;28;20210;-90
2021/03/02 08:18:47;;;;;;;;;;;15.00;79.60;;;;;;5038362;28;20015;-90
2021/03/02 08:21:30;;;;;;;;;;;15.40;76.10;;;;;;5049530;28;19909;-90
2021/03/02 08:24:04;;;;;;;;;;;15.70;68.50;;;;;;5037510;28;19936;-91
2021/03/02 08:26:36;;;;;;;;;;;16.10;68.80;;;;;;5030297;28;19920;-90
2021/03/02 08:29:23;;;;;;;;;;;16.50;66.80;;;;;;5037351;28;19913;-90
2021/03/02 08:31:55;;;;;;;;;;;16.80;64.60;;;;;;5039825;28;19991;-90
2021/03/02 08:34:36;;;;;;;;;;;16.90;61.40;;;;;;5040077;28;19916;-90
2021/03/02 08:37:12;;;;;;;;;;;16.70;60.20;;;;;;5041193;28;19909;-90
2021/03/02 08:39:54;;;;;;;;;;;16.80;60.60;;;;;;5056375;28;19909;-91
2021/03/02 08:42:33;;;;;;;;;;;16.90;60.10;;;;;;5059881;28;19919;-88
2021/03/02 08:45:14;;;;;;;;;;;17.20;58.80;;;;;;5034749;28;19934;-90
2021/03/02 08:47:55;;;;;;;;;;;17.50;57.90;;;;;;5034938;28;19923;-89
2021/03/02 08:50:33;;;;;;;;;;;17.80;55.90;;;;;;5056443;28;20007;-90
2021/03/02 08:53:26;;;;;;;;;;;18.00;56.30;;;;;;5027472;28;19925;-91
2021/03/02 08:56:05;;;;;;;;;;;18.20;55.00;;;;;;5022118;28;19959;-91
2021/03/02 08:58:46;;;;;;;;;;;18.70;54.80;;;;;;5022115;28;19910;-90
2021/03/02 09:01:26;;;;;;;;;;;18.80;52.50;;;;;;5021369;28;19916;-90
2021/03/02 09:04:15;;;;;;;;;;;18.80;52.20;;;;;;5036344;28;19920;-91
2021/03/02 09:06:46;;;;;;;;;;;18.90;51.80;;;;;;5023679;28;19917;-90
2021/03/02 09:09:18;;;;;;;;;;;18.80;51.40;;;;;;5019490;28;19909;-92
2021/03/02 09:11:48;;;;;;;;;;;18.90;51.60;;;;;;5024379;28;19913;-91
2021/03/02 09:14:35;;;;;;;;;;;19.10;51.40;;;;;;5024046;28;20369;-91
2021/03/02 09:17:12;;;;;;;;;;;19.40;50.60;;;;;;5039514;28;19913;-91
2021/03/02 09:19:41;;;;;;;;;;;19.60;50.40;;;;;;5022469;28;19916;-90
2021/03/02 09:22:24;;;;;;;;;;;19.80;49.80;;;;;;5021630;28;20381;-89
2021/03/02 09:24:58;;;;;;;;;;;19.80;49.40;;;;;;4987253;28;19949;-91
2021/03/02 09:27:37;;;;;;;;;;;19.90;49.70;;;;;;5000760;28;19917;-89
2021/03/02 09:30:25;;;;;;;;;;;20.10;48.50;;;;;;5010799;28;19988;-92
2021/03/02 09:32:55;;;;;;;;;;;20.20;47.90;;;;;;4988637;28;19909;-92
2021/03/02 09:35:31;;;;;;;;;;;20.30;48.40;;;;;;5010896;28;19929;-92
2021/03/02 09:38:02;;;;;;;;;;;20.40;48.20;;;;;;4919566;29;19922;-93
2021/03/02 09:40:41;;;;;;;;;;;20.60;47.90;;;;;;4904079;29;19918;-91
2021/03/02 09:43:10;;;;;;;;;;;20.80;47.10;;;;;;4913446;29;19916;-92
2021/03/02 09:45:37;;;;;;;;;;;21.00;46.80;;;;;;4902849;29;19926;-89
2021/03/02 09:48:09;;;;;;;;;;;21.20;46.80;;;;;;4922177;29;19911;-88
2021/03/02 09:50:41;;;;;;;;;;;21.50;46.40;;;;;;4920337;29;20002;-92
2021/03/02 09:53:13;;;;;;;;;;;21.60;45.50;;;;;;4921456;29;19923;-90
2021/03/02 09:55:42;;;;;;;;;;;21.60;45.80;;;;;;4930213;29;20449;-90
2021/03/02 09:58:25;;;;;;;;;;;21.50;45.20;;;;;;4952556;29;19911;-92
2021/03/02 10:01:11;;;;;;;;;;;21.40;46.00;;;;;;4957709;29;19910;-93
2021/03/02 10:03:42;;;;;;;;;;;21.50;46.00;;;;;;4943412;29;19986;-91
2021/03/02 10:06:12;;;;;;;;;;;21.70;46.30;;;;;;4958682;29;20057;-91
2021/03/02 10:08:42;;;;;;;;;;;22.00;45.70;;;;;;4969999;28;19914;-93
2021/03/02 10:11:33;;;;;;;;;;;22.40;45.50;;;;;;4979973;28;19909;-93
2021/03/02 10:14:05;;;;;;;;;;;22.70;44.70;;;;;;4978715;28;19917;-91
2021/03/02 10:16:43;;;;;;;;;;;22.90;44.00;;;;;;4980222;28;19910;-92
2021/03/02 10:19:19;;;;;;;;;;;23.00;43.90;;;;;;4979792;28;19927;-91
2021/03/02 10:21:58;;;;;;;;;;;23.10;43.40;;;;;;4996122;28;19976;-92
2021/03/02 10:24:44;;;;;;;;;;;23.30;43.40;;;;;;4981540;28;19913;-92
2021/03/02 10:27:20;;;;;;;;;;;23.50;43.30;;;;;;4984680;28;19926;-92
2021/03/02 10:29:49;;;;;;;;;;;23.60;43.40;;;;;;5020832;28;20424;-91
2021/03/02 10:32:16;;;;;;;;;;;23.70;42.90;;;;;;5035600;28;19913;-92
2021/03/02 10:34:44;;;;;;;;;;;23.90;42.50;;;;;;5043383;28;19909;-89
2021/03/02 10:37:27;;;;;;;;;;;;;;;;;;;;;
2021/03/02 10:39:58;;;;;;;;;;;24.20;42.70;;;;;;5032173;28;20004;-93
2021/03/02 10:42:35;;;;;;;;;;;24.30;42.00;;;;;;5026600;28;19987;-93
2021/03/02 10:45:33;;;;;;;;;;;24.40;42.20;;;;;;5020847;28;19909;-92
2021/03/02 10:48:04;;;;;;;;;;;24.40;41.40;;;;;;5019367;28;19917;-92
2021/03/02 10:50:33;;;;;;;;;;;24.10;41.20;;;;;;5037310;28;19913;-92
2021/03/02 10:52:58;;;;;;;;;;;24.00;41.90;;;;;;5016876;28;19928;-93
2021/03/02 10:55:27;;;;;;;;;;;24.10;41.50;;;;;;5017419;28;19909;-93
2021/03/02 10:57:55;;;;;;;;;;;24.10;41.90;;;;;;5016435;28;19920;-92
2021/03/02 11:00:46;;;;;;;;;;;24.10;41.90;;;;;;5008042;28;19941;-91
2021/03/02 11:03:18;;;;;;;;;;;24.50;41.50;;;;;;4971456;28;20386;-93
2021/03/02 11:06:03;;;;;;;;;;;24.90;41.00;;;;;;5017639;28;19915;-93
2021/03/02 11:08:32;;;;;;;;;;;25.20;40.70;;;;;;4937091;29;19971;-92
2021/03/02 11:11:16;;;;;;;;;;;25.20;40.70;;;;;;4937002;29;19954;-91
2021/03/02 11:13:49;;;;;;;;;;;25.00;40.00;;;;;;4893637;29;19940;-92
2021/03/02 11:16:25;;;;;;;;;;;25.00;40.50;;;;;;4898626;29;19934;-92
2021/03/02 11:19:08;;;;;;;;;;;25.20;40.20;;;;;;4899389;29;19916;-92
2021/03/02 11:21:46;;;;;;;;;;;25.10;39.00;;;;;;4844782;29;19912;-92
2021/03/02 11:24:18;;;;;;;;;;;25.00;38.90;;;;;;4859044;29;19916;-92
2021/03/02 11:26:49;;;;;;;;;;;24.70;38.40;;;;;;4856730;29;20441;-92
2021/03/02 11:29:25;;;;;;;;;;;24.70;38.80;;;;;;4846858;29;19968;-90
2021/03/02 11:31:52;;;;;;;;;;;24.90;38.70;;;;;;4862181;29;19912;-89
2021/03/02 11:34:21;;;;;;;;;;;24.90;38.30;;;;;;4899411;29;19918;-92
2021/03/02 11:36:59;;;;;;;;;;;24.70;38.80;;;;;;4898573;29;19912;-91
2021/03/02 11:39:34;;;;;;;;;;;24.60;38.90;;;;;;4928165;29;19935;-93
2021/03/02 11:42:18;;;;;;;;;;;24.50;38.40;;;;;;4938051;29;19974;-91
2021/03/02 11:45:03;;;;;;;;;;;24.20;38.80;;;;;;4936356;29;19966;-93
2021/03/02 11:47:36;;;;;;;;;;;24.60;39.10;;;;;;4936034;29;19919;-91
2021/03/02 11:50:03;;;;;;;;;;;25.00;38.60;;;;;;4936780;29;19961;-92
2021/03/02 11:52:29;;;;;;;;;;;25.40;38.50;;;;;;4936161;29;20328;-92
2021/03/02 11:55:00;;;;;;;;;;;25.50;38.40;;;;;;4917667;29;19951;-92
2021/03/02 11:57:43;;;;;;;;;;;25.90;38.20;;;;;;4918619;29;20014;-93
2021/03/02 12:00:30;;;;;;;;;;;;;;;;;;;;;
2021/03/02 12:03:00;;;;;;;;;;;26.30;37.50;;;;;;4940926;28;19931;-91
2021/03/02 12:05:37;;;;;;;;;;;26.50;37.10;;;;;;4927368;28;20035;-92
2021/03/02 12:08:06;;;;;;;;;;;26.50;37.10;;;;;;4973958;28;20009;-93
2021/03/02 12:10:37;;;;;;;;;;;26.40;37.00;;;;;;4994767;28;19910;-93
2021/03/02 12:13:09;;;;;;;;;;;26.20;37.00;;;;;;4943364;29;19915;-94
2021/03/02 12:15:44;;;;;;;;;;;26.00;37.00;;;;;;4961998;29;19915;-92
2021/03/02 12:18:18;;;;;;;;;;;25.70;37.60;;;;;;4971132;28;19914;-93
2021/03/02 12:20:49;;;;;;;;;;;25.70;37.50;;;;;;4977527;28;19917;-92
2021/03/02 12:23:18;;;;;;;;;;;25.70;37.10;;;;;;4979573;28;19995;-91
2021/03/02 12:25:50;;;;;;;;;;;25.70;37.70;;;;;;4978560;28;20363;-93
2021/03/02 12:28:28;;;;;;;;;;;25.70;37.20;;;;;;4979005;28;19910;-93
2021/03/02 12:31:00;;;;;;;;;;;25.60;37.30;;;;;;4977684;28;19930;-92
2021/03/02 12:33:28;;;;;;;;;;;25.70;37.60;;;;;;4943427;29;20005;-92
2021/03/02 12:36:07;;;;;;;;;;;25.60;37.70;;;;;;4941025;29;19911;-92
2021/03/02 12:38:33;;;;;;;;;;;25.70;37.60;;;;;;4955164;29;19921;-91
2021/03/02 12:41:02;;;;;;;;;;;25.80;37.40;;;;;;4951455;29;19982;-93
2021/03/02 12:43:30;;;;;;;;;;;26.00;37.50;;;;;;4966287;28;19910;-91
2021/03/02 12:46:00;;;;;;;;;;;26.10;36.50;;;;;;5015930;28;20008;-93
2021/03/02 12:48:26;;;;;;;;;;;25.60;36.50;;;;;;5003470;28;20377;-92
2021/03/02 12:50:55;;;;;;;;;;;25.10;36.90;;;;;;5003578;28;19909;-92
2021/03/02 12:53:20;;;;;;;;;;;24.90;37.60;;;;;;5020745;28;19921;-92
2021/03/02 12:55:52;;;;;;;;;;;25.00;37.80;;;;;;5024274;28;19920;-93
2021/03/02 12:58:17;;;;;;;;;;;25.20;37.90;;;;;;5020735;28;19966;-91
2021/03/02 13:00:49;;;;;;;;;;;25.30;37.90;;;;;;5026883;28;19909;-91
2021/03/02 13:03:18;;;;;;;;;;;25.40;37.50;;;;;;5026307;28;19913;-91
2021/03/02 13:05:50;;;;;;;;;;;25.40;37.70;;;;;;5030559;28;19920;-93
2021/03/02 13:08:28;;;;;;;;;;;25.20;37.90;;;;;;5018742;28;19914;-91
2021/03/02 13:10:57;;;;;;;;;;;25.00;37.90;;;;;;5024113;28;19951;-93
2021/03/02 13:13:35;;;;;;;;;;;25.20;38.20;;;;;;5018014;28;19909;-92
2021/03/02 13:16:07;;;;;;;;;;;25.20;38.20;;;;;;5001607;28;19910;-92
2021/03/02 13:18:37;;;;;;;;;;;25.00;38.10;;;;;;5002001;28;19941;-93
2021/03/02 13:21:13;;;;;;;;;;;25.20;38.80;;;;;;4980183;28;19941;-93
2021/03/02 13:23:39;;;;;;;;;;;25.50;38.40;;;;;;4978765;28;19917;-92
2021/03/02 13:26:11;;;;;;;;;;;25.80;39.50;;;;;;4979020;28;19947;-93
2021/03/02 13:29:06;;;;;;;;;;;26.10;38.00;;;;;;4962414;29;19910;-94
2021/03/02 13:31:42;;;;;;;;;;;26.00;37.80;;;;;;4941606;28;20383;-90
2021/03/02 13:34:15;;;;;;;;;;;25.80;37.40;;;;;;4980177;28;19910;-93
2021/03/02 13:36:47;;;;;;;;;;;25.60;37.90;;;;;;4976140;28;19914;-91
2021/03/02 13:39:35;;;;;;;;;;;25.60;38.00;;;;;;4980330;28;19965;-92
2021/03/02 13:42:11;;;;;;;;;;;25.30;37.40;;;;;;4976394;28;19910;-92
2021/03/02 13:44:43;;;;;;;;;;;25.20;38.00;;;;;;4989656;28;19916;-92
2021/03/02 13:47:12;;;;;;;;;;;25.10;38.40;;;;;;4939966;29;19919;-92
2021/03/02 13:49:41;;;;;;;;;;;25.00;38.30;;;;;;4938820;29;19919;-91
2021/03/02 13:52:07;;;;;;;;;;;25.00;38.70;;;;;;4932809;29;19911;-93
2021/03/02 13:54:37;;;;;;;;;;;25.20;38.40;;;;;;4922334;29;19934;-93
2021/03/02 13:57:19;;;;;;;;;;;24.90;38.50;;;;;;4923320;29;19955;-92
2021/03/02 13:59:50;;;;;;;;;;;24.90;39.40;;;;;;4922353;29;19916;-91
2021/03/02 14:02:23;;;;;;;;;;;24.60;38.80;;;;;;4920510;29;19911;-93
2021/03/02 14:05:00;;;;;;;;;;;24.30;38.80;;;;;;4928973;29;19926;-91
2021/03/02 14:07:40;;;;;;;;;;;24.20;39.90;;;;;;4934446;29;19926;-90
2021/03/02 14:10:16;;;;;;;;;;;24.30;40.10;;;;;;4937234;29;19911;-92
2021/03/02 14:12:48;;;;;;;;;;;24.30;39.80;;;;;;4932665;29;19899;-91
2021/03/02 14:15:23;;;;;;;;;;;24.30;39.90;;;;;;4939264;29;19911;-91
2021/03/02 14:17:58;;;;;;;;;;;24.10;39.10;;;;;;4970669;28;19894;-92
2021/03/02 14:20:30;;;;;;;;;;;23.70;40.20;;;;;;4987316;28;19985;-90
2021/03/02 14:23:15;;;;;;;;;;;23.80;40.50;;;;;;4987897;28;19910;-93
2021/03/02 14:29:00;;;;;;;;;;;23.70;40.60;;;;;;4997391;28;19918;-92
2021/03/02 14:31:47;;;;;;;;;;;23.60;40.50;;;;;;4965244;28;19910;-92
2021/03/02 14:34:22;;;;;;;;;;;23.40;40.70;;;;;;4978548;28;19992;-92
2021/03/02 14:36:54;;;;;;;;;;;23.10;40.70;;;;;;4976769;28;19910;-94
2021/03/02 14:39:29;;;;;;;;;;;23.00;41.40;;;;;;4919856;29;19931;-93
2021/03/02 14:42:03;;;;;;;;;;;22.90;41.60;;;;;;4904035;29;19990;-92
2021/03/02 14:44:57;;;;;;;;;;;23.00;42.40;;;;;;4904613;29;20002;-91
2021/03/02 14:47:37;;;;;;;;;;;23.10;42.30;;;;;;4931819;29;19940;-92
2021/03/02 14:50:12;;;;;;;;;;;23.00;41.50;;;;;;4953609;29;19899;-92
2021/03/02 14:52:50;;;;;;;;;;;22.90;41.10;;;;;;4883396;29;19912;-92
2021/03/02 14:55:36;;;;;;;;;;;22.80;42.00;;;;;;4897575;29;19934;-93
2021/03/02 14:58:05;;;;;;;;;;;22.80;42.40;;;;;;4885071;29;19951;-93
2021/03/02 15:00:44;;;;;;;;;;;22.90;42.20;;;;;;4862975;29;19951;-92
2021/03/02 15:03:09;;;;;;;;;;;23.00;41.70;;;;;;4864305;29;19923;-92
2021/03/02 15:05:47;;;;;;;;;;;22.80;42.10;;;;;;4862695;29;19926;-92
2021/03/02 15:08:25;;;;;;;;;;;22.60;42.90;;;;;;4866468;29;19917;-91
2021/03/02 15:10:56;;;;;;;;;;;22.40;42.80;;;;;;4875992;29;19959;-94
2021/03/02 15:13:28;;;;;;;;;;;22.30;43.40;;;;;;4882767;29;19941;-93